METAR AND TAF INFORMATION
METAR FOR EDDT
ADDS - METARS form results

(0841 UTC 16 December 2019)
Data provider http://aviationweather.gov/metar/data/
 
METAR text: EDDT 160820Z 15006KT 9999 FEW045 06/04 Q1010 NOSIG
Conditions at: EDDT (BERLIN/TEGEL (FA, DE) observed 0820 UTC 16 December 2019
Temperature: 6.0°C (43°F)
Dewpoint: 4.0°C (39°F) [RH = 87%]
Pressure (altimeter): 29.82 inches Hg (1010.0 mb)
Winds: from the SSE (150 degrees) at 7 MPH (6 knots; 3.1 m/s)
Visibility: 6 or more miles (10+ km)
Ceiling: at least 12,000 feet AGL
Clouds: few clouds at 4500 feet AGL
Weather: no significant weather observed at this time

METAR text: EDDT 160750Z 15005KT CAVOK 05/03 Q1010 NOSIG
Conditions at: EDDT (BERLIN/TEGEL (FA, DE) observed 0750 UTC 16 December 2019
Temperature: 5.0°C (41°F)
Dewpoint: 3.0°C (37°F) [RH = 87%]
Pressure (altimeter): 29.82 inches Hg (1010.0 mb)
Winds: from the SSE (150 degrees) at 6 MPH (5 knots; 2.6 m/s)
Visibility: 6 or more miles (10+ km)
Ceiling: ceiling and visibility are OK
Clouds: unknown
Weather: no significant weather observed at this time

Forecast for: EDDT (BERLIN/TEGEL (FA, DE)
Text: TAF EDDT 160500Z 1606/1706 18006KT 9999 SCT045
Forecast period: 0600 UTC 16 December 2019 to 0600 UTC 17 December 2019
Forecast type: FROM: standard forecast or significant change
Winds: from the S (180 degrees) at 7 MPH (6 knots; 3.1 m/s)
Visibility: 6 or more miles 10+ km)
Ceiling: at least 12,000 feet AGL
Clouds: scattered clouds at 4500 feet AGL
Weather: no significant weather forecast for this period

 AIRPORT MAP

 RUNWAY INFORMATION
Runway 08L Runway length 9918 ft Runway width 151 ft
Runway elevation 110 ft Runway displaced threshold 0 ft Runway heading 81
Runway 26R Runway length 9918 ft Runway width 151 ft
Runway elevation 117 ft Runway displaced threshold 0 ft Runway heading 261
Runway 08R Runway length 7966 ft Runway width 151 ft
Runway elevation 109 ft Runway displaced threshold 341 ft Runway heading 81
Runway 26L Runway length 7966 ft Runway width 151 ft
Runway elevation 122 ft Runway displaced threshold 722 ft Runway heading 261

 AIRPORT FREQUENCIES
Type AFIS Name BERLIN INF Frequency 132.65 MHZ
Type APP Name BERLIN ARR Frequency 119.625 MHZ
Type ATIS Name ATIS Frequency 125.9 MHZ
Type DEP Name BERLIN DEP Frequency 120.625 MHZ
Type DIR Name BERLIN DIR Frequency 136.1 MHZ
Type GND Name GND Frequency 121.925 MHZ
Type RMP Name BERLIN MIL Frequency 136 MHZ
Type TWR Name TWR Frequency 124.525 MHZ

 AIRPORT NEAR NAVIGATION AIDS
Type NDB Name Tegel East Frequency 321 KHZ
Type NDB Name Tegel West Frequency 392 KHZ
Type VOR-DME Name Tegel Frequency 112300 KHZ